HECA Airport Information

Runway Information
Runway 05C Length 13120 ft width 197 ft
Elevation 382 ft Threshold 0 ft Heading 45
Runway 23C Length 13120 ft Width 197 ft
Elevation 0 ft Threshold 0 ft Heading 225
Runway 05L Length 10830 ft width 197 ft
Elevation 190 ft Threshold 0 ft Heading 49
Runway 23R Length 10830 ft Width 197 ft
Elevation 199 ft Threshold 0 ft Heading 229
Runway 05R Length 13124 ft width 197 ft
Elevation 382 ft Threshold 0 ft Heading 49
Runway 23L Length 13124 ft Width 197 ft
Elevation 375 ft Threshold 0 ft Heading 229
Airport Frequencies
Type APP Name APP Frequency 119.05 MHZ
Type ATIS Name ATIS Frequency 122.6 MHZ
Type GND Name GND Frequency 121.9 MHZ
Type MISC Name VOLMET Frequency 126.2 MHZ
Type PFLT Name PREFLIGHT Frequency 120.1 MHZ
Type rdo Name cairo radi Frequency 11.3 MHZ
Type TWR Name TWR Frequency 118.1 MHZ
Type Volmet Name Frequency 124.6 MHZ
Airport Navaids
Type NDB Name Cairo Frequency 310 KHZ
Type VOR-DME Name Cairo Frequency 112500 KHZ
Type VOR-DME Name Cairo Frequency 115200 KHZ
Type NDB Name Cairo Frequency 317 KHZ
Airport Weather Information & NOTAM
ADDS - METARS form results

(1543 UTC 07 May 2021)
Data provider http://aviationweather.gov/metar/data/
 
METAR text: HECA 071530Z 36010KT CAVOK 36/10 Q1013 NOSIG
Conditions at: HECA (CAIRO INTL AIRPO, EG) observed 1530 UTC 07 May 2021
Temperature: 36.0°C (97°F)
Dewpoint: 10.0°C (50°F) [RH = 21%]
Pressure (altimeter): 29.91 inches Hg (1013.0 mb)
Winds: from the N (360 degrees) at 12 MPH (10 knots; 5.1 m/s)
Visibility: 6 or more miles (10+ km)
Ceiling: ceiling and visibility are OK
Clouds: unknown
Weather: no significant weather observed at this time

METAR text: HECA 071500Z 33009KT CAVOK 36/10 Q1012 NOSIG
Conditions at: HECA (CAIRO INTL AIRPO, EG) observed 1500 UTC 07 May 2021
Temperature: 36.0°C (97°F)
Dewpoint: 10.0°C (50°F) [RH = 21%]
Pressure (altimeter): 29.88 inches Hg (1012.0 mb)
Winds: from the NNW (330 degrees) at 10 MPH (9 knots; 4.6 m/s)
Visibility: 6 or more miles (10+ km)
Ceiling: ceiling and visibility are OK
Clouds: unknown
Weather: no significant weather observed at this time

Forecast for: HECA (CAIRO INTL AIRPO, EG)
Text: TAF HECA 071100Z 0712/0818 36011KT CAVOK
Forecast period: 1200 UTC 07 May 2021 to 1800 UTC 08 May 2021
Forecast type: FROM: standard forecast or significant change
Winds: from the N (360 degrees) at 13 MPH (11 knots; 5.7 m/s)
Visibility: 6 or more miles (10+ km)
Ceiling: unknown
Clouds: missing
Weather: NSW  (no significant weather)